Time;durP1;ratioP1;P1;durP2;ratioP2;P2;SDS_P1;SDS_P2;PMS_P1;PMS_P2;Temp;Humidity;BMP_temperature;BMP_pressure;BME280_temperature;BME280_humidity;BME280_pressure;Samples;Min_cycle;Max_cycle;Signal;HPM_P1;HPM_P2
2022/10/18 00:01:30;;;;;;;;;;;;;;;13.10;94.08;97435.78;5094012;28;20002;-72
2022/10/18 00:03:56;;;;;;;;;;;;;;;13.09;94.31;97431.56;5092659;28;19959;-73
2022/10/18 00:06:22;;;;;;;;;;;;;;;13.08;94.53;97437.81;5093325;28;19949;-72
2022/10/18 00:08:48;;;;;;;;;;;;;;;13.08;94.89;97443.09;5093429;28;19957;-73
2022/10/18 00:11:13;;;;;;;;;;;;;;;13.06;94.83;97437.22;5093362;28;20024;-73
2022/10/18 00:13:39;;;;;;;;;;;;;;;13.05;95.29;97441.69;5095702;28;20407;-73
2022/10/18 00:16:10;;;;;;;;;;;;;;;13.05;95.37;97436.41;5097194;28;20335;-72
2022/10/18 00:18:36;;;;;;;;;;;;;;;13.03;95.29;97435.00;5097579;28;19971;-72
2022/10/18 00:21:07;;;;;;;;;;;;;;;13.02;95.55;97436.00;5097132;28;19953;-71
2022/10/18 00:23:34;;;;;;;;;;;;;;;13.01;95.89;97437.84;5097108;28;19949;-71
2022/10/18 00:26:00;;;;;;;;;;;;;;;13.01;95.86;97437.84;5096083;28;19956;-72
2022/10/18 00:28:26;;;;;;;;;;;;;;;13.02;96.03;97441.28;5095714;28;20348;-71
2022/10/18 00:30:52;;;;;;;;;;;;;;;12.98;95.38;97433.81;5097311;28;19969;-71
2022/10/18 00:33:18;;;;;;;;;;;;;;;12.99;96.10;97437.25;5096921;28;20406;-72
2022/10/18 00:35:44;;;;;;;;;;;;;;;12.97;96.58;97436.66;5096773;28;20311;-72
2022/10/18 00:38:10;;;;;;;;;;;;;;;12.96;96.58;97432.41;5096614;28;19999;-72
2022/10/18 00:40:35;;;;;;;;;;;;;;;12.94;96.48;97432.63;5096700;28;20402;-72
2022/10/18 00:43:01;;;;;;;;;;;;;;;12.95;96.89;97430.78;5096843;28;20356;-72
2022/10/18 00:45:27;;;;;;;;;;;;;;;12.94;96.99;97429.97;5096638;28;19955;-72
2022/10/18 00:48:03;;;;;;;;;;;;;;;12.93;97.04;97424.91;5096731;28;19960;-72
2022/10/18 00:50:31;;;;;;;;;;;;;;;12.94;98.63;97429.19;5096409;28;20425;-72
2022/10/18 00:52:59;;;;;;;;;;;;;;;12.93;97.49;97425.72;5096481;28;20409;-72
2022/10/18 00:55:26;;;;;;;;;;;;;;;12.92;97.15;97437.28;5096277;28;19949;-72
2022/10/18 00:57:52;;;;;;;;;;;;;;;12.94;97.08;97437.88;5096598;28;20334;-72
2022/10/18 01:00:18;;;;;;;;;;;;;;;12.92;97.44;97434.66;5095676;28;19965;-72
2022/10/18 01:02:45;;;;;;;;;;;;;;;12.94;97.50;97439.72;5096153;28;19949;-72
2022/10/18 01:05:12;;;;;;;;;;;;;;;12.94;97.53;97434.44;5096133;28;19947;-71
2022/10/18 01:08:17;;;;;;;;;;;;;;;12.95;98.09;97433.41;5096385;28;19955;-72
2022/10/18 01:11:01;;;;;;;;;;;;;;;12.95;98.17;97436.03;5014186;28;19971;-72
2022/10/18 01:13:29;;;;;;;;;;;;;;;12.93;98.57;97430.97;5002379;28;19952;-72
2022/10/18 01:16:00;;;;;;;;;;;;;;;12.93;98.60;97420.44;5062722;28;20323;-72
2022/10/18 01:18:32;;;;;;;;;;;;;;;12.94;98.88;97419.44;5096458;28;19975;-72
2022/10/18 01:20:58;;;;;;;;;;;;;;;12.95;98.99;97420.25;5096054;28;19955;-72
2022/10/18 01:23:36;;;;;;;;;;;;;;;12.96;99.38;97419.25;5095605;28;20016;-72
2022/10/18 01:26:20;;;;;;;;;;;;;;;12.98;99.99;97423.28;5095973;28;19961;-72
2022/10/18 01:28:55;;;;;;;;;;;;;;;12.99;99.79;97422.25;5095826;28;19961;-72
2022/10/18 01:31:22;;;;;;;;;;;;;;;13.03;100.00;97432.38;5095182;28;19970;-72
2022/10/18 01:33:56;;;;;;;;;;;;;;;13.04;100.00;97429.56;5095877;28;19959;-72
2022/10/18 01:36:28;;;;;;;;;;;;;;;13.07;99.83;97428.31;5095643;28;19950;-72
2022/10/18 01:38:56;;;;;;;;;;;;;;;13.10;100.00;97425.25;5095551;28;19952;-71
2022/10/18 01:41:23;;;;;;;;;;;;;;;13.11;100.00;97421.63;5095596;28;20395;-71
2022/10/18 01:43:52;;;;;;;;;;;;;;;13.14;99.55;97426.44;5095438;28;19952;-72
2022/10/18 01:46:21;;;;;;;;;;;;;;;13.14;99.51;97427.25;5095656;28;19951;-72
2022/10/18 01:48:47;;;;;;;;;;;;;;;13.14;99.87;97416.72;5095605;28;20413;-72
2022/10/18 01:51:12;;;;;;;;;;;;;;;13.14;100.00;97413.28;5095124;28;19977;-72
2022/10/18 01:53:38;;;;;;;;;;;;;;;13.12;99.74;97418.78;5095368;28;20391;-72
2022/10/18 01:56:07;;;;;;;;;;;;;;;13.14;100.00;97424.63;5095491;28;19974;-72
2022/10/18 01:58:40;;;;;;;;;;;;;;;13.13;100.00;97422.22;5094971;28;19956;-71
2022/10/18 02:01:32;;;;;;;;;;;;;;;13.14;100.00;97426.44;5095410;28;19958;-72
2022/10/18 02:04:04;;;;;;;;;;;;;;;13.14;100.00;97423.81;5083218;28;19948;-72
2022/10/18 02:06:33;;;;;;;;;;;;;;;13.15;100.00;97420.19;5095162;28;20314;-71
2022/10/18 02:09:11;;;;;;;;;;;;;;;13.14;100.00;97419.34;5094868;28;19960;-72
2022/10/18 02:11:39;;;;;;;;;;;;;;;13.15;100.00;97417.53;5095576;28;19964;-71
2022/10/18 02:14:07;;;;;;;;;;;;;;;13.14;100.00;97415.91;5094968;28;19945;-72
2022/10/18 02:16:53;;;;;;;;;;;;;;;13.13;100.00;97411.69;5094953;28;19956;-71
2022/10/18 02:19:21;;;;;;;;;;;;;;;13.11;100.00;97411.09;5094733;28;20424;-71
2022/10/18 02:21:49;;;;;;;;;;;;;;;13.11;100.00;97416.34;5094874;28;19958;-72
2022/10/18 02:24:15;;;;;;;;;;;;;;;13.14;100.00;97410.66;5082844;28;20319;-71
2022/10/18 02:26:42;;;;;;;;;;;;;;;13.16;100.00;97411.25;5094094;28;19950;-72
2022/10/18 02:29:08;;;;;;;;;;;;;;;13.18;100.00;97407.38;5094598;28;19967;-71
2022/10/18 02:31:40;;;;;;;;;;;;;;;13.22;100.00;97404.34;5094309;28;19976;-72
2022/10/18 02:34:20;;;;;;;;;;;;;;;13.23;100.00;97400.66;5094432;28;19952;-71
2022/10/18 02:36:59;;;;;;;;;;;;;;;13.24;100.00;97397.03;5093839;28;19966;-71
2022/10/18 02:39:28;;;;;;;;;;;;;;;13.27;100.00;97392.16;5080019;28;19953;-72
2022/10/18 02:41:54;;;;;;;;;;;;;;;13.29;100.00;97394.59;5094611;28;19956;-72
2022/10/18 02:44:20;;;;;;;;;;;;;;;13.31;100.00;97405.72;5094209;28;19952;-72
2022/10/18 02:46:46;;;;;;;;;;;;;;;13.32;100.00;97405.53;5094355;28;19948;-72
2022/10/18 02:49:12;;;;;;;;;;;;;;;13.34;100.00;97407.94;5094027;28;19959;-72
2022/10/18 02:51:38;;;;;;;;;;;;;;;13.34;100.00;97406.13;5094329;28;20407;-71
2022/10/18 02:54:04;;;;;;;;;;;;;;;13.34;100.00;97395.56;5094464;28;20004;-71
2022/10/18 02:56:30;;;;;;;;;;;;;;;13.33;100.00;97401.88;5094163;28;19957;-71
2022/10/18 02:58:56;;;;;;;;;;;;;;;13.32;100.00;97389.72;5092980;28;19961;-72
2022/10/18 03:01:22;;;;;;;;;;;;;;;13.33;99.92;97393.16;5093903;28;20410;-72
2022/10/18 03:03:48;;;;;;;;;;;;;;;13.32;99.85;97388.91;5094176;28;19953;-72
2022/10/18 03:06:14;;;;;;;;;;;;;;;13.32;100.00;97394.97;5092926;28;19963;-72
2022/10/18 03:08:40;;;;;;;;;;;;;;;13.32;100.00;97397.63;5094116;28;20053;-72
2022/10/18 03:11:05;;;;;;;;;;;;;;;13.32;100.00;97399.44;5093826;28;19968;-72
2022/10/18 03:13:32;;;;;;;;;;;;;;;13.32;99.97;97399.44;5093195;28;20367;-73
2022/10/18 03:15:59;;;;;;;;;;;;;;;13.30;99.67;97391.75;5093969;28;19953;-73
2022/10/18 03:18:25;;;;;;;;;;;;;;;13.30;99.69;97394.38;5093941;28;19981;-72
2022/10/18 03:20:51;;;;;;;;;;;;;;;13.29;99.34;97394.59;5093819;28;19983;-71
2022/10/18 03:23:17;;;;;;;;;;;;;;;13.28;99.43;97393.75;5093671;28;19986;-71
2022/10/18 03:25:43;;;;;;;;;;;;;;;13.27;98.74;97399.22;5094339;28;20462;-72
2022/10/18 03:28:09;;;;;;;;;;;;;;;13.25;98.88;97394.19;5093607;28;19964;-71
2022/10/18 03:30:35;;;;;;;;;;;;;;;13.24;98.87;97395.19;5093845;28;19962;-72
2022/10/18 03:33:01;;;;;;;;;;;;;;;13.21;98.70;97398.28;5093600;28;19979;-72
2022/10/18 03:35:26;;;;;;;;;;;;;;;13.19;98.68;97393.19;5093761;28;19958;-72
2022/10/18 03:37:52;;;;;;;;;;;;;;;13.16;98.28;97393.59;5093041;28;19953;-72
2022/10/18 03:40:19;;;;;;;;;;;;;;;13.13;98.36;97391.41;5093691;28;19949;-72
2022/10/18 03:42:45;;;;;;;;;;;;;;;13.11;98.55;97401.34;5093688;28;19959;-72
2022/10/18 03:45:11;;;;;;;;;;;;;;;13.09;98.36;97394.69;5093515;28;20402;-72
2022/10/18 03:47:37;;;;;;;;;;;;;;;13.05;98.72;97399.56;5096064;28;20404;-73
2022/10/18 03:50:02;;;;;;;;;;;;;;;13.04;98.59;97394.47;5097543;28;20414;-73
2022/10/18 03:52:28;;;;;;;;;;;;;;;13.02;98.41;97391.25;5097715;28;19968;-74
2022/10/18 03:54:54;;;;;;;;;;;;;;;12.98;100.00;97398.78;5097857;28;20340;-75
2022/10/18 03:57:20;;;;;;;;;;;;;;;12.93;98.84;97406.47;5096118;28;19954;-73
2022/10/18 03:59:47;;;;;;;;;;;;;;;12.90;98.93;97393.75;5097972;28;19960;-73
2022/10/18 04:02:13;;;;;;;;;;;;;;;12.88;99.67;97404.47;5097792;28;19957;-74
2022/10/18 04:04:39;;;;;;;;;;;;;;;12.86;99.71;97403.09;5097288;28;20312;-74
2022/10/18 04:07:05;;;;;;;;;;;;;;;12.85;99.64;97402.28;5097236;28;19951;-74
2022/10/18 04:09:31;;;;;;;;;;;;;;;12.85;99.96;97404.91;5097861;28;20470;-74
2022/10/18 04:11:56;;;;;;;;;;;;;;;12.84;99.79;97407.75;5097590;28;20313;-73
2022/10/18 04:14:22;;;;;;;;;;;;;;;12.83;99.61;97404.31;5097144;28;20401;-72
2022/10/18 04:16:48;;;;;;;;;;;;;;;12.84;99.40;97415.66;5097383;28;20358;-73
2022/10/18 04:19:14;;;;;;;;;;;;;;;12.83;99.24;97409.59;5097373;28;19978;-71
2022/10/18 04:21:40;;;;;;;;;;;;;;;12.81;99.04;97408.97;5096860;28;20319;-72
2022/10/18 04:24:06;;;;;;;;;;;;;;;12.80;99.04;97408.16;5097363;28;20012;-71
2022/10/18 04:26:32;;;;;;;;;;;;;;;12.80;98.87;97417.88;5095805;28;20007;-72
2022/10/18 04:28:58;;;;;;;;;;;;;;;12.77;98.87;97408.56;5097094;28;19951;-71
2022/10/18 04:31:24;;;;;;;;;;;;;;;12.77;99.02;97402.50;5096724;28;19969;-71
2022/10/18 04:33:50;;;;;;;;;;;;;;;12.73;99.02;97410.00;5094591;28;19953;-71
2022/10/18 04:36:15;;;;;;;;;;;;;;;12.72;99.37;97416.28;5096866;28;19957;-71
2022/10/18 04:38:41;;;;;;;;;;;;;;;12.70;99.18;97417.50;5096566;28;19950;-72
2022/10/18 04:41:07;;;;;;;;;;;;;;;12.69;99.63;97424.59;5096662;28;19960;-71
2022/10/18 04:43:33;;;;;;;;;;;;;;;12.69;99.88;97426.44;5096644;28;19960;-72
2022/10/18 04:45:59;;;;;;;;;;;;;;;12.68;100.00;97427.44;5096865;28;19956;-72
2022/10/18 04:48:25;;;;;;;;;;;;;;;12.68;99.89;97430.06;5096702;28;19956;-73
2022/10/18 04:50:51;;;;;;;;;;;;;;;12.67;100.00;97426.63;5096523;28;20291;-72
2022/10/18 04:53:17;;;;;;;;;;;;;;;12.68;100.00;97432.69;5096579;28;20037;-72
2022/10/18 04:55:44;;;;;;;;;;;;;;;12.66;100.00;97425.03;5096539;28;19949;-72
2022/10/18 04:58:10;;;;;;;;;;;;;;;12.65;100.00;97422.59;5095731;28;19951;-72
2022/10/18 05:00:36;;;;;;;;;;;;;;;12.63;100.00;97429.88;5096231;28;19951;-72
2022/10/18 05:03:02;;;;;;;;;;;;;;;12.61;100.00;97427.44;5096329;28;19962;-71
2022/10/18 05:05:28;;;;;;;;;;;;;;;12.61;100.00;97429.28;5094763;28;20311;-71
2022/10/18 05:07:53;;;;;;;;;;;;;;;12.61;100.00;97421.38;5096076;28;19948;-72
2022/10/18 05:10:19;;;;;;;;;;;;;;;12.61;100.00;97419.56;5096028;28;20037;-71
2022/10/18 05:12:45;;;;;;;;;;;;;;;12.63;100.00;97417.53;5095951;28;19966;-72
2022/10/18 05:15:11;;;;;;;;;;;;;;;12.65;100.00;97427.84;5096246;28;20303;-72
2022/10/18 05:17:37;;;;;;;;;;;;;;;12.64;100.00;97421.78;5095980;28;19956;-72
2022/10/18 05:20:03;;;;;;;;;;;;;;;12.65;100.00;97420.75;5096656;28;19982;-72
2022/10/18 05:22:29;;;;;;;;;;;;;;;12.65;100.00;97427.84;5095325;28;20421;-72
2022/10/18 05:24:55;;;;;;;;;;;;;;;12.65;100.00;97423.41;5096121;28;19961;-71
2022/10/18 05:27:21;;;;;;;;;;;;;;;12.65;100.00;97415.50;5095797;28;20051;-72
2022/10/18 05:29:47;;;;;;;;;;;;;;;12.65;100.00;97410.22;5094908;28;19950;-71
2022/10/18 05:32:13;;;;;;;;;;;;;;;12.65;100.00;97414.69;5095897;28;19991;-71
2022/10/18 05:34:39;;;;;;;;;;;;;;;12.65;100.00;97423.41;5095988;28;20427;-71
2022/10/18 05:37:05;;;;;;;;;;;;;;;12.64;100.00;97416.53;5095641;28;19949;-71
2022/10/18 05:39:31;;;;;;;;;;;;;;;12.63;100.00;97414.09;5096012;28;19962;-73
2022/10/18 05:41:58;;;;;;;;;;;;;;;12.62;100.00;97430.88;5094157;28;19949;-74
2022/10/18 05:44:24;;;;;;;;;;;;;;;12.59;100.00;97426.84;5095420;28;19955;-74
2022/10/18 05:46:50;;;;;;;;;;;;;;;12.59;100.00;97421.59;5095542;28;19959;-73
2022/10/18 05:49:16;;;;;;;;;;;;;;;12.58;100.00;97422.63;5095564;28;19953;-74
2022/10/18 05:51:42;;;;;;;;;;;;;;;12.58;100.00;97414.72;5095678;28;19977;-74
2022/10/18 05:54:10;;;;;;;;;;;;;;;12.58;100.00;97418.16;5095186;28;20375;-74
2022/10/18 05:56:35;;;;;;;;;;;;;;;12.58;100.00;97426.03;5095299;28;19954;-74
2022/10/18 05:59:03;;;;;;;;;;;;;;;12.58;100.00;97418.16;5095177;28;20383;-74
2022/10/18 06:01:29;;;;;;;;;;;;;;;12.58;100.00;97423.41;5094942;28;20325;-74
2022/10/18 06:03:55;;;;;;;;;;;;;;;12.59;100.00;97418.94;5095346;28;20430;-74
2022/10/18 06:06:21;;;;;;;;;;;;;;;12.62;100.00;97415.09;5094927;28;19996;-74
2022/10/18 06:08:48;;;;;;;;;;;;;;;12.66;100.00;97424.19;5095604;28;20402;-74
2022/10/18 06:11:15;;;;;;;;;;;;;;;12.70;100.00;97413.03;5093930;28;19948;-75
2022/10/18 06:13:42;;;;;;;;;;;;;;;12.74;100.00;97430.03;5095073;28;19959;-74
2022/10/18 06:16:08;;;;;;;;;;;;;;;12.77;100.00;97419.09;5094856;28;20405;-74
2022/10/18 06:18:34;;;;;;;;;;;;;;;12.84;100.00;97428.81;5094506;28;19981;-74
2022/10/18 06:20:59;;;;;;;;;;;;;;;12.88;100.00;97427.38;5094927;28;20061;-75
2022/10/18 06:23:26;;;;;;;;;;;;;;;13.03;100.00;97427.91;5094679;28;20006;-75
2022/10/18 06:25:52;;;;;;;;;;;;;;;13.24;100.00;97418.91;5093784;28;19956;-74
2022/10/18 06:28:18;;;;;;;;;;;;;;;13.44;100.00;97415.38;5094666;28;19952;-75
2022/10/18 06:30:44;;;;;;;;;;;;;;;13.63;100.00;97422.38;5095070;28;20052;-75
2022/10/18 06:33:10;;;;;;;;;;;;;;;13.79;100.00;97418.38;5094352;28;19978;-75
2022/10/18 06:35:36;;;;;;;;;;;;;;;13.76;99.94;97422.28;5094961;28;19952;-74
2022/10/18 06:38:02;;;;;;;;;;;;;;;13.72;100.00;97428.19;5094362;28;19942;-75
2022/10/18 06:40:29;;;;;;;;;;;;;;;13.65;100.00;97428.25;5094573;28;19996;-75
2022/10/18 06:42:55;;;;;;;;;;;;;;;13.60;100.00;97425.41;5093301;28;19964;-75
2022/10/18 06:45:21;;;;;;;;;;;;;;;13.56;100.00;97427.66;5094859;28;19961;-75
2022/10/18 06:47:47;;;;;;;;;;;;;;;13.54;100.00;97421.00;5094284;28;19997;-75
2022/10/18 06:50:13;;;;;;;;;;;;;;;13.52;100.00;97428.31;5094392;28;20009;-75
2022/10/18 06:52:40;;;;;;;;;;;;;;;13.50;100.00;97425.06;5094067;28;19970;-75
2022/10/18 06:55:06;;;;;;;;;;;;;;;13.50;100.00;97435.63;5094398;28;19970;-75
2022/10/18 06:57:32;;;;;;;;;;;;;;;13.49;100.00;97441.91;5094271;28;20423;-75
2022/10/18 06:59:58;;;;;;;;;;;;;;;13.53;100.00;97446.53;5094014;28;19955;-75
2022/10/18 07:02:24;;;;;;;;;;;;;;;13.66;100.00;97431.69;5094512;28;20442;-75
2022/10/18 07:04:50;;;;;;;;;;;;;;;13.70;100.00;97453.94;5094014;28;20011;-75
2022/10/18 07:07:16;;;;;;;;;;;;;;;13.69;100.00;97447.06;5093973;28;20000;-75
2022/10/18 07:09:41;;;;;;;;;;;;;;;13.67;100.00;97449.91;5094090;28;19980;-75
2022/10/18 07:12:07;;;;;;;;;;;;;;;13.67;100.00;97457.00;5093815;28;20481;-75
2022/10/18 07:14:33;;;;;;;;;;;;;;;13.67;100.00;97467.53;5093776;28;20030;-75
2022/10/18 07:16:59;;;;;;;;;;;;;;;13.67;100.00;97462.28;5094010;28;19950;-74
2022/10/18 07:19:25;;;;;;;;;;;;;;;13.68;100.00;97461.25;5093787;28;19976;-74
2022/10/18 07:21:51;;;;;;;;;;;;;;;13.69;100.00;97454.97;5093525;28;19959;-75
2022/10/18 07:24:17;;;;;;;;;;;;;;;13.71;100.00;97452.91;5093361;28;19948;-75
2022/10/18 07:26:43;;;;;;;;;;;;;;;13.73;100.00;97454.34;5094048;28;19955;-75
2022/10/18 07:29:10;;;;;;;;;;;;;;;13.76;100.00;97448.63;5093702;28;19954;-75
2022/10/18 07:31:37;;;;;;;;;;;;;;;13.80;100.00;97444.56;5093501;28;19957;-75
2022/10/18 07:34:03;;;;;;;;;;;;;;;13.84;100.00;97449.38;5093747;28;19944;-75
2022/10/18 07:36:29;;;;;;;;;;;;;;;13.89;100.00;97442.44;5093840;28;20432;-75
2022/10/18 07:38:55;;;;;;;;;;;;;;;13.94;100.00;97440.00;5093636;28;19958;-75
2022/10/18 07:41:22;;;;;;;;;;;;;;;14.01;100.00;97447.84;5093812;28;19958;-75
2022/10/18 07:43:49;;;;;;;;;;;;;;;14.06;100.00;97444.56;5092791;28;20300;-75
2022/10/18 07:46:16;;;;;;;;;;;;;;;14.10;100.00;97451.03;5093936;28;19953;-75
2022/10/18 07:48:42;;;;;;;;;;;;;;;14.16;100.00;97460.72;5093952;28;19965;-75
2022/10/18 07:51:08;;;;;;;;;;;;;;;14.19;100.00;97453.19;5093564;28;20429;-75
2022/10/18 07:53:34;;;;;;;;;;;;;;;14.25;100.00;97450.69;5093578;28;19973;-75
2022/10/18 07:56:01;;;;;;;;;;;;;;;14.31;100.00;97461.19;5093254;28;19949;-75
2022/10/18 07:58:27;;;;;;;;;;;;;;;14.38;100.00;97459.31;5093382;28;19958;-75
2022/10/18 08:00:53;;;;;;;;;;;;;;;14.48;100.00;97472.00;5093545;28;19979;-75
2022/10/18 08:03:19;;;;;;;;;;;;;;;14.56;99.29;97453.28;5093303;28;20415;-75
2022/10/18 08:05:52;;;;;;;;;;;;;;;14.68;99.66;97460.47;5093382;28;19959;-74
2022/10/18 08:08:19;;;;;;;;;;;;;;;14.73;97.79;97456.16;5080078;28;19951;-74
2022/10/18 08:10:45;;;;;;;;;;;;;;;14.75;97.60;97459.38;5093223;28;19957;-72
2022/10/18 08:13:11;;;;;;;;;;;;;;;14.79;97.65;97465.03;5094033;28;20019;-71
2022/10/18 08:15:37;;;;;;;;;;;;;;;14.84;98.52;97474.94;5093265;28;19949;-72
2022/10/18 08:18:03;;;;;;;;;;;;;;;14.87;96.60;97458.66;5093151;28;20048;-72
2022/10/18 08:20:30;;;;;;;;;;;;;;;14.90;97.58;97469.56;5093234;28;20056;-72
2022/10/18 08:22:56;;;;;;;;;;;;;;;14.95;96.92;97458.34;5093346;28;20413;-73
2022/10/18 08:25:22;;;;;;;;;;;;;;;15.01;97.23;97466.22;5092997;28;19961;-72
2022/10/18 08:27:48;;;;;;;;;;;;;;;15.10;96.93;97463.25;5093492;28;19955;-72
2022/10/18 08:30:14;;;;;;;;;;;;;;;15.18;96.51;97462.94;5093304;28;19949;-72
2022/10/18 08:32:40;;;;;;;;;;;;;;;15.26;97.27;97472.44;5093172;28;20434;-72
2022/10/18 08:35:06;;;;;;;;;;;;;;;15.33;97.05;97459.91;5095759;28;19960;-72
2022/10/18 08:37:32;;;;;;;;;;;;;;;15.43;96.39;97465.50;5096736;28;19952;-73
2022/10/18 08:39:58;;;;;;;;;;;;;;;15.67;98.33;97465.59;5096643;28;20412;-72
2022/10/18 08:42:27;;;;;;;;;;;;;;;15.97;94.50;97447.84;5096482;28;19955;-72
2022/10/18 08:44:53;;;;;;;;;;;;;;;16.29;94.29;97452.03;5096686;28;19945;-72
2022/10/18 08:47:19;;;;;;;;;;;;;;;16.48;91.64;97437.66;5096513;28;19963;-72
2022/10/18 08:49:48;;;;;;;;;;;;;;;16.50;89.88;97440.88;5096658;28;19966;-72
2022/10/18 08:52:31;;;;;;;;;;;;;;;16.41;90.19;97443.06;5096331;28;20408;-72
2022/10/18 08:55:00;;;;;;;;;;;;;;;16.32;90.72;97441.81;5096015;28;19947;-71
2022/10/18 08:57:26;;;;;;;;;;;;;;;16.36;92.84;97466.00;5096438;28;19953;-72
2022/10/18 08:59:52;;;;;;;;;;;;;;;16.54;94.22;97463.19;5096201;28;19961;-72
2022/10/18 09:02:26;;;;;;;;;;;;;;;16.71;91.62;97449.25;5095143;28;19995;-73
2022/10/18 09:05:12;;;;;;;;;;;;;;;16.88;91.02;97444.88;5096335;28;20430;-73
2022/10/18 09:07:57;;;;;;;;;;;;;;;16.99;89.32;97437.97;5082464;28;20045;-72
2022/10/18 09:10:41;;;;;;;;;;;;;;;17.10;88.81;97446.94;5096103;28;20324;-72
2022/10/18 09:13:19;;;;;;;;;;;;;;;17.14;89.59;97446.22;5094527;28;19972;-72
2022/10/18 09:15:54;;;;;;;;;;;;;;;17.30;89.36;97447.31;5096210;28;19955;-72
2022/10/18 09:18:27;;;;;;;;;;;;;;;17.50;90.48;97449.53;5095577;28;19972;-72
2022/10/18 09:21:02;;;;;;;;;;;;;;;17.67;88.80;97438.16;5096231;28;19958;-72
2022/10/18 09:23:46;;;;;;;;;;;;;;;17.72;87.95;97440.91;5095824;28;19956;-72
2022/10/18 09:26:12;;;;;;;;;;;;;;;17.78;87.43;97446.03;5087750;28;19949;-72
2022/10/18 09:28:47;;;;;;;;;;;;;;;17.90;88.14;97442.56;5095842;28;19951;-74
2022/10/18 09:31:16;;;;;;;;;;;;;;;18.02;88.25;97454.72;5080252;28;20414;-72
2022/10/18 09:33:45;;;;;;;;;;;;;;;18.15;83.61;97420.94;5095755;28;19977;-73
2022/10/18 09:36:19;;;;;;;;;;;;;;;18.26;86.73;97446.59;5095677;28;19967;-72
2022/10/18 09:38:47;;;;;;;;;;;;;;;18.38;84.75;97431.38;5080465;28;19957;-72
2022/10/18 09:41:13;;;;;;;;;;;;;;;18.51;85.70;97438.19;5095794;28;19960;-72
2022/10/18 09:43:51;;;;;;;;;;;;;;;18.59;84.26;97429.00;5095370;28;20015;-72
2022/10/18 09:46:18;;;;;;;;;;;;;;;18.68;82.87;97416.91;5095068;28;19956;-72
2022/10/18 09:48:47;;;;;;;;;;;;;;;18.74;83.54;97426.53;5095944;28;19949;-72
2022/10/18 09:51:20;;;;;;;;;;;;;;;18.86;82.64;97421.16;5095428;28;19965;-72
2022/10/18 09:54:00;;;;;;;;;;;;;;;18.95;83.28;97424.97;5095456;28;19977;-72
2022/10/18 09:56:32;;;;;;;;;;;;;;;19.06;83.74;97421.38;5080343;28;19943;-72
2022/10/18 09:58:57;;;;;;;;;;;;;;;19.11;80.03;97398.56;5095321;28;20309;-72
2022/10/18 10:01:24;;;;;;;;;;;;;;;19.16;80.30;97403.94;5095339;28;19957;-72
2022/10/18 10:03:50;;;;;;;;;;;;;;;19.23;81.10;97408.03;5095003;28;20316;-72
2022/10/18 10:06:22;;;;;;;;;;;;;;;19.32;80.91;97413.72;5095096;28;19975;-72
2022/10/18 10:08:54;;;;;;;;;;;;;;;19.42;81.25;97418.31;5095106;28;20331;-72
2022/10/18 10:11:31;;;;;;;;;;;;;;;19.52;81.88;97409.63;5094903;28;19950;-73
2022/10/18 10:14:06;;;;;;;;;;;;;;;19.57;80.16;97407.84;5094484;28;19959;-73
2022/10/18 10:16:32;;;;;;;;;;;;;;;19.65;79.63;97402.06;5095056;28;19952;-73
2022/10/18 10:18:58;;;;;;;;;;;;;;;19.73;78.83;97405.34;5094795;28;20057;-72
2022/10/18 10:21:24;;;;;;;;;;;;;;;19.87;78.73;97402.00;5095084;28;19957;-73
2022/10/18 10:23:55;;;;;;;;;;;;;;;19.99;76.51;97377.88;5094576;28;20036;-72
2022/10/18 10:26:24;;;;;;;;;;;;;;;20.16;78.91;97403.53;5095135;28;20000;-72
2022/10/18 10:28:50;;;;;;;;;;;;;;;20.36;76.61;97392.22;5094887;28;19955;-72
2022/10/18 10:31:18;;;;;;;;;;;;;;;20.57;77.42;97393.91;5094918;28;19960;-72
2022/10/18 10:33:45;;;;;;;;;;;;;;;20.82;75.52;97376.47;5094817;28;19981;-71
2022/10/18 10:36:16;;;;;;;;;;;;;;;21.02;72.37;97347.22;5094539;28;20412;-71
2022/10/18 10:38:42;;;;;;;;;;;;;;;21.07;74.32;97367.75;5094524;28;19952;-71
2022/10/18 10:41:18;;;;;;;;;;;;;;;21.03;75.78;97396.03;5094333;28;19956;-71
2022/10/18 10:43:44;;;;;;;;;;;;;;;20.92;75.65;97394.38;5094886;28;19952;-71
2022/10/18 10:46:12;;;;;;;;;;;;;;;20.77;75.75;97408.47;5094478;28;19953;-71
2022/10/18 10:48:40;;;;;;;;;;;;;;;20.65;76.37;97406.00;5094516;28;19969;-71
2022/10/18 10:51:08;;;;;;;;;;;;;;;20.57;77.25;97420.56;5094346;28;20421;-71
2022/10/18 10:53:37;;;;;;;;;;;;;;;20.46;76.03;97402.94;5094169;28;19961;-71
2022/10/18 10:56:03;;;;;;;;;;;;;;;20.37;77.40;97407.94;5094032;28;19950;-72
2022/10/18 10:58:33;;;;;;;;;;;;;;;20.43;78.13;97422.09;5094290;28;19965;-72
2022/10/18 11:01:15;;;;;;;;;;;;;;;20.56;77.10;97403.00;5094197;28;20430;-73
2022/10/18 11:03:48;;;;;;;;;;;;;;;20.54;76.62;97396.31;5093354;28;20324;-72
2022/10/18 11:06:29;;;;;;;;;;;;;;;20.53;78.36;97414.16;5093856;28;19956;-72
2022/10/18 11:08:57;;;;;;;;;;;;;;;20.53;74.88;97374.19;5094094;28;19955;-72
2022/10/18 11:11:35;;;;;;;;;;;;;;;20.65;76.22;97382.81;5093864;28;19959;-72
2022/10/18 11:14:01;;;;;;;;;;;;;;;20.92;73.30;97357.84;5086449;28;19964;-72
2022/10/18 11:16:41;;;;;;;;;;;;;;;21.12;71.77;97343.75;5093903;28;19961;-72
2022/10/18 11:19:20;;;;;;;;;;;;;;;21.30;70.36;97334.47;5084798;28;19998;-72
2022/10/18 11:21:46;;;;;;;;;;;;;;;21.44;65.82;97305.41;5093838;28;19956;-72
2022/10/18 11:24:14;;;;;;;;;;;;;;;21.58;67.80;97317.16;5093631;28;20057;-72
2022/10/18 11:26:43;;;;;;;;;;;;;;;21.74;67.32;97312.63;5078163;28;19960;-72
2022/10/18 11:29:17;;;;;;;;;;;;;;;21.91;65.60;97298.97;5094039;28;19954;-72
2022/10/18 11:32:01;;;;;;;;;;;;;;;22.05;65.94;97316.06;5093822;28;19957;-72
2022/10/18 11:34:46;;;;;;;;;;;;;;;22.18;64.47;97353.97;5092317;28;19967;-72
2022/10/18 11:37:22;;;;;;;;;;;;;;;22.24;67.19;97380.44;5093705;28;19949;-72
2022/10/18 11:40:02;;;;;;;;;;;;;;;22.34;65.11;97371.56;5093714;28;19960;-72
2022/10/18 11:42:37;;;;;;;;;;;;;;;22.44;64.90;97376.09;5094057;28;19970;-72
2022/10/18 11:45:09;;;;;;;;;;;;;;;22.52;63.25;97367.53;5092501;28;19956;-72
2022/10/18 11:47:44;;;;;;;;;;;;;;;22.52;64.13;97372.06;5094092;28;19957;-72
2022/10/18 11:50:10;;;;;;;;;;;;;;;22.50;62.26;97369.66;5093369;28;19956;-72
2022/10/18 11:52:36;;;;;;;;;;;;;;;22.50;59.18;97351.75;5093561;28;19948;-72
2022/10/18 11:55:05;;;;;;;;;;;;;;;22.56;61.29;97365.13;5093688;28;19959;-72
2022/10/18 11:57:36;;;;;;;;;;;;;;;22.60;61.90;97369.63;5092651;28;19949;-72
2022/10/18 12:00:17;;;;;;;;;;;;;;;22.55;62.97;97375.00;5093554;28;19954;-72
2022/10/18 12:02:52;;;;;;;;;;;;;;;22.47;61.24;97363.00;5093679;28;19964;-74
2022/10/18 12:05:19;;;;;;;;;;;;;;;22.42;59.59;97349.63;5093510;28;19952;-72
2022/10/18 12:08:14;;;;;;;;;;;;;;;22.44;59.49;97354.72;5093505;28;19956;-72
2022/10/18 12:10:41;;;;;;;;;;;;;;;22.47;58.95;97346.97;5071546;28;19959;-72
2022/10/18 12:13:14;;;;;;;;;;;;;;;22.53;62.26;97363.75;5097619;28;19970;-72
2022/10/18 12:15:40;;;;;;;;;;;;;;;22.53;60.88;97360.31;5097234;28;19961;-72
2022/10/18 12:18:11;;;;;;;;;;;;;;;22.55;62.60;97363.50;5097169;28;19956;-72
2022/10/18 12:20:40;;;;;;;;;;;;;;;22.57;62.55;97359.47;5097016;28;19967;-72
2022/10/18 12:23:19;;;;;;;;;;;;;;;22.60;60.80;97348.25;5097660;28;19955;-72
2022/10/18 12:25:49;;;;;;;;;;;;;;;22.62;58.98;97353.34;5097302;28;19948;-72
2022/10/18 12:28:32;;;;;;;;;;;;;;;22.62;59.62;97348.00;5097109;28;19953;-72
2022/10/18 12:31:01;;;;;;;;;;;;;;;22.53;61.21;97357.63;5096678;28;19954;-72
2022/10/18 12:33:29;;;;;;;;;;;;;;;22.47;59.93;97354.97;5095867;28;19967;-72
2022/10/18 12:35:55;;;;;;;;;;;;;;;22.44;62.34;97360.84;5096940;28;19947;-72
2022/10/18 12:38:25;;;;;;;;;;;;;;;22.39;62.09;97354.75;5096761;28;19947;-72
2022/10/18 12:40:52;;;;;;;;;;;;;;;22.40;60.75;97348.31;5096970;28;19955;-72
2022/10/18 12:43:33;;;;;;;;;;;;;;;22.43;59.82;97342.44;5096621;28;20324;-72
2022/10/18 12:46:00;;;;;;;;;;;;;;;22.38;63.32;97353.13;5097153;28;19950;-72
2022/10/18 12:48:28;;;;;;;;;;;;;;;22.37;64.66;97367.59;5096375;28;19955;-72
2022/10/18 12:51:02;;;;;;;;;;;;;;;22.17;61.01;97347.78;5096826;28;19955;-72